Time;durP1;ratioP1;P1;durP2;ratioP2;P2;SDS_P1;SDS_P2;PMS_P1;PMS_P2;Temp;Humidity;BMP_temperature;BMP_pressure;BME280_temperature;BME280_humidity;BME280_pressure;Samples;Min_cycle;Max_cycle;Signal;HPM_P1;HPM_P2
2024/04/03 00:00:43;;;;;;;3.83;2.97;;;5.90;99.90;;;;;;4177290;28;20087;-59
2024/04/03 00:02:44;;;;;;;4.03;2.70;;;5.90;99.90;;;;;;4175580;28;20106;-57
2024/04/03 00:04:45;;;;;;;7.40;4.20;;;5.90;99.90;;;;;;4177003;28;20037;-58
2024/04/03 00:06:46;;;;;;;6.57;5.17;;;5.90;99.90;;;;;;4176747;28;20079;-58
2024/04/03 00:08:47;;;;;;;8.37;4.67;;;5.90;99.90;;;;;;4177896;28;20087;-58
2024/04/03 00:10:49;;;;;;;6.30;3.93;;;5.90;99.90;;;;;;4177013;28;20025;-59
2024/04/03 00:12:50;;;;;;;5.53;3.70;;;5.90;99.90;;;;;;4178331;28;20029;-59
2024/04/03 00:14:51;;;;;;;6.63;3.17;;;5.90;99.90;;;;;;4179322;28;20449;-58
2024/04/03 00:16:52;;;;;;;5.27;3.30;;;6.00;99.90;;;;;;4178892;28;20106;-56
2024/04/03 00:18:54;;;;;;;3.43;2.97;;;6.00;99.90;;;;;;4177956;28;20025;-58
2024/04/03 00:21:02;;;;;;;9.60;3.50;;;6.00;99.90;;;;;;4178132;28;20090;-57
2024/04/03 00:23:03;;;;;;;6.20;3.43;;;6.10;99.90;;;;;;4177677;28;20497;-59
2024/04/03 00:25:05;;;;;;;7.30;3.30;;;6.10;99.90;;;;;;4177340;28;20036;-59
2024/04/03 00:27:06;;;;;;;3.23;2.70;;;6.10;99.90;;;;;;4177590;28;20029;-58
2024/04/03 00:29:08;;;;;;;6.00;3.27;;;6.10;99.90;;;;;;4176715;28;20045;-57
2024/04/03 00:31:09;;;;;;;4.47;3.20;;;6.20;99.90;;;;;;4178458;28;20041;-58
2024/04/03 00:33:10;;;;;;;3.93;2.90;;;6.10;99.90;;;;;;4176223;28;20037;-59
2024/04/03 00:35:12;;;;;;;3.83;3.10;;;6.10;99.90;;;;;;4177717;28;20563;-58
2024/04/03 00:37:13;;;;;;;5.27;3.73;;;5.90;99.90;;;;;;4176898;28;20094;-59
2024/04/03 00:39:15;;;;;;;5.37;3.20;;;5.90;99.90;;;;;;4177063;28;20045;-56
2024/04/03 00:41:16;;;;;;;5.90;3.23;;;5.80;99.90;;;;;;4176464;28;20562;-58
2024/04/03 00:43:17;;;;;;;4.20;2.90;;;5.70;99.90;;;;;;4179545;28;20029;-54
2024/04/03 00:45:18;;;;;;;4.27;3.00;;;5.60;99.90;;;;;;4178644;28;20114;-54
2024/04/03 00:47:20;;;;;;;8.17;4.00;;;5.60;99.90;;;;;;4179818;28;20087;-59
2024/04/03 00:49:21;;;;;;;5.97;3.50;;;5.60;99.90;;;;;;4177793;28;20063;-58
2024/04/03 00:51:23;;;;;;;7.67;3.83;;;5.60;99.90;;;;;;4178824;28;20072;-56
2024/04/03 00:53:25;;;;;;;7.07;4.33;;;5.60;99.90;;;;;;4178879;28;20013;-54
2024/04/03 00:55:26;;;;;;;6.57;4.63;;;5.60;99.90;;;;;;4178934;28;20037;-58
2024/04/03 00:57:28;;;;;;;5.87;4.00;;;5.60;99.90;;;;;;4179319;28;20045;-59
2024/04/03 00:59:30;;;;;;;7.60;4.20;;;5.70;99.90;;;;;;4178512;28;20087;-58
2024/04/03 01:01:31;;;;;;;7.53;3.53;;;5.70;99.90;;;;;;4179367;28;20083;-56
2024/04/03 01:03:32;;;;;;;6.47;3.90;;;5.80;99.90;;;;;;4177855;28;20436;-59
2024/04/03 01:05:34;;;;;;;4.93;3.90;;;5.80;99.90;;;;;;4179406;28;20045;-60
2024/04/03 01:07:38;;;;;;;5.23;3.90;;;5.80;99.90;;;;;;4178415;28;20400;-59
2024/04/03 01:09:39;;;;;;;5.27;3.23;;;5.80;99.90;;;;;;4179170;28;20436;-58
2024/04/03 01:11:41;;;;;;;8.40;3.93;;;5.80;99.90;;;;;;4178542;28;20079;-58
2024/04/03 01:13:42;;;;;;;8.13;4.00;;;5.80;99.90;;;;;;4179533;28;20102;-59
2024/04/03 01:15:43;;;;;;;5.70;3.77;;;5.70;99.90;;;;;;4178380;28;20024;-60
2024/04/03 01:17:45;;;;;;;6.20;3.93;;;5.70;99.90;;;;;;4179411;28;20107;-58
2024/04/03 01:19:46;;;;;;;5.67;3.77;;;5.80;99.90;;;;;;4177083;28;20459;-58
2024/04/03 01:21:47;;;;;;;4.77;3.33;;;5.80;99.90;;;;;;4179209;28;20037;-59
2024/04/03 01:23:54;;;;;;;5.00;3.53;;;5.80;99.90;;;;;;4178590;28;20063;-57
2024/04/03 01:25:56;;;;;;;7.10;3.80;;;5.70;99.90;;;;;;4179153;28;20408;-57
2024/04/03 01:27:57;;;;;;;6.90;4.27;;;5.60;99.90;;;;;;4178288;28;20424;-57
2024/04/03 01:29:58;;;;;;;6.97;4.23;;;5.50;99.90;;;;;;4178262;28;20878;-58
2024/04/03 01:32:01;;;;;;;6.23;4.50;;;5.50;99.90;;;;;;4178774;28;20083;-56
2024/04/03 01:34:02;;;;;;;6.97;3.80;;;5.50;99.90;;;;;;4177431;28;20489;-55
2024/04/03 01:36:06;;;;;;;7.10;4.80;;;5.40;99.90;;;;;;4179248;28;20086;-58
2024/04/03 01:38:07;;;;;;;8.10;4.77;;;5.50;99.90;;;;;;4178192;28;20079;-58
2024/04/03 01:40:09;;;;;;;6.70;4.27;;;5.60;99.90;;;;;;4178892;28;20045;-56
2024/04/03 01:42:12;;;;;;;10.67;5.60;;;5.70;99.90;;;;;;4177754;28;20083;-57
2024/04/03 01:44:13;;;;;;;8.07;5.53;;;5.60;99.90;;;;;;4178936;28;20029;-59
2024/04/03 01:46:14;;;;;;;12.90;5.83;;;5.60;99.90;;;;;;4177284;28;20070;-53
2024/04/03 01:48:15;;;;;;;10.13;5.60;;;5.60;99.90;;;;;;4178752;28;20078;-58
2024/04/03 01:50:32;;;;;;;8.40;5.40;;;5.60;99.90;;;;;;4177178;28;20099;-59
2024/04/03 01:52:33;;;;;;;8.13;5.10;;;5.60;99.90;;;;;;4178348;28;20067;-56
2024/04/03 01:54:34;;;;;;;13.23;6.53;;;5.60;99.90;;;;;;4177415;28;20086;-55
2024/04/03 01:56:35;;;;;;;8.03;5.40;;;5.60;99.90;;;;;;4178284;28;20033;-59
2024/04/03 01:58:37;;;;;;;5.50;4.60;;;5.70;99.90;;;;;;4176321;28;20512;-56
2024/04/03 02:00:38;;;;;;;9.30;4.87;;;5.80;99.90;;;;;;4178325;28;20110;-54
2024/04/03 02:02:39;;;;;;;7.33;4.97;;;5.80;99.90;;;;;;4177484;28;20033;-57
2024/04/03 02:04:40;;;;;;;9.43;5.17;;;5.90;99.90;;;;;;4176315;28;20041;-55
2024/04/03 02:06:42;;;;;;;9.07;5.00;;;5.90;99.90;;;;;;4176929;28;20037;-58
2024/04/03 02:08:43;;;;;;;10.70;5.23;;;5.90;99.90;;;;;;4175041;28;20090;-59
2024/04/03 02:10:44;;;;;;;7.70;4.77;;;5.90;99.90;;;;;;4176602;28;20099;-58
2024/04/03 02:12:45;;;;;;;6.50;4.17;;;6.00;99.90;;;;;;4175011;28;20519;-57
2024/04/03 02:14:46;;;;;;;6.57;4.10;;;6.00;99.90;;;;;;4176819;28;20103;-56
2024/04/03 02:16:48;;;;;;;10.40;4.80;;;5.90;99.90;;;;;;4176816;28;20058;-58
2024/04/03 02:18:50;;;;;;;8.57;4.40;;;5.90;99.90;;;;;;4176272;28;20033;-57
2024/04/03 02:20:51;;;;;;;7.40;4.43;;;5.90;99.90;;;;;;4175282;28;20041;-57
2024/04/03 02:22:53;;;;;;;6.70;3.67;;;5.90;99.90;;;;;;4177305;28;20049;-59
2024/04/03 02:24:54;;;;;;;6.40;3.60;;;5.90;99.90;;;;;;4176256;28;20037;-53
2024/04/03 02:26:55;;;;;;;7.30;4.27;;;5.90;99.90;;;;;;4176723;28;20041;-54
2024/04/03 02:28:56;;;;;;;7.00;4.50;;;5.90;99.90;;;;;;4175201;28;20114;-56
2024/04/03 02:31:01;;;;;;;7.00;3.90;;;5.90;99.90;;;;;;4175292;28;20071;-59
2024/04/03 02:33:03;;;;;;;6.57;4.17;;;5.90;99.90;;;;;;4175001;28;20049;-54
2024/04/03 02:35:04;;;;;;;7.30;4.10;;;6.00;99.90;;;;;;4175877;28;20504;-55
2024/04/03 02:37:06;;;;;;;5.43;3.77;;;5.90;99.90;;;;;;4176375;28;20079;-57
2024/04/03 02:39:07;;;;;;;6.67;4.37;;;5.90;99.90;;;;;;4176362;28;20041;-57
2024/04/03 02:41:08;;;;;;;7.17;3.40;;;5.90;99.90;;;;;;4175060;28;20374;-58
2024/04/03 02:43:09;;;;;;;16.00;9.50;;;5.90;99.90;;;;;;4175096;28;20029;-58
2024/04/03 02:45:11;;;;;;;12.17;7.70;;;5.90;99.90;;;;;;4176364;28;20087;-58
2024/04/03 02:47:12;;;;;;;16.63;10.20;;;5.80;99.90;;;;;;4175202;28;20013;-57
2024/04/03 02:49:13;;;;;;;6.93;4.73;;;5.90;99.90;;;;;;4176577;28;20033;-56
2024/04/03 02:51:15;;;;;;;9.73;4.40;;;5.80;99.90;;;;;;4177112;28;20028;-55
2024/04/03 02:53:17;;;;;;;9.87;5.50;;;5.70;99.90;;;;;;4177571;28;20033;-58
2024/04/03 02:55:18;;;;;;;11.03;4.47;;;5.60;99.90;;;;;;4176807;28;20378;-58
2024/04/03 02:57:19;;;;;;;9.53;4.50;;;5.60;99.90;;;;;;4177909;28;20485;-56
2024/04/03 02:59:20;;;;;;;6.80;4.27;;;5.50;99.90;;;;;;4176933;28;20037;-56
2024/04/03 03:01:22;;;;;;;8.43;4.27;;;5.50;99.90;;;;;;4177914;28;20083;-57
2024/04/03 03:03:25;;;;;;;7.87;4.23;;;5.50;99.90;;;;;;4176433;28;20025;-58
2024/04/03 03:05:27;;;;;;;8.93;4.50;;;5.40;99.90;;;;;;4176991;28;20067;-58
2024/04/03 03:07:28;;;;;;;5.37;4.00;;;5.40;99.90;;;;;;4177610;28;20022;-60
2024/04/03 03:09:29;;;;;;;7.43;4.17;;;5.50;99.90;;;;;;4176615;28;20099;-59
2024/04/03 03:11:30;;;;;;;6.50;3.63;;;5.60;99.90;;;;;;4176728;28;20087;-58
2024/04/03 03:13:32;;;;;;;5.10;3.00;;;5.60;99.90;;;;;;4176275;28;20037;-59
2024/04/03 03:15:33;;;;;;;6.00;3.47;;;5.50;99.90;;;;;;4177144;28;20094;-61
2024/04/03 03:17:34;;;;;;;5.03;3.70;;;5.50;99.90;;;;;;4174968;28;20526;-54
2024/04/03 03:19:35;;;;;;;4.53;3.47;;;5.50;99.90;;;;;;4175648;28;20041;-58
2024/04/03 03:21:37;;;;;;;4.77;3.53;;;5.50;99.90;;;;;;4175194;28;20103;-58
2024/04/03 03:23:38;;;;;;;7.47;4.50;;;5.50;99.90;;;;;;4175777;28;20091;-58
2024/04/03 03:25:39;;;;;;;8.00;4.60;;;5.50;99.90;;;;;;4176060;28;20033;-56
2024/04/03 03:27:41;;;;;;;8.80;4.73;;;5.50;99.90;;;;;;4177400;28;20040;-57
2024/04/03 03:29:42;;;;;;;8.30;4.50;;;5.50;99.90;;;;;;4176634;28;20029;-57
2024/04/03 03:31:43;;;;;;;8.67;4.57;;;5.40;99.90;;;;;;4176061;28;20496;-55
2024/04/03 03:33:44;;;;;;;8.57;4.43;;;5.40;99.90;;;;;;4174591;28;20094;-55
2024/04/03 03:35:53;;;;;;;6.33;4.63;;;5.40;99.90;;;;;;4175036;28;20155;-58
2024/04/03 03:37:54;;;;;;;11.23;4.53;;;5.40;99.90;;;;;;4175234;28;20563;-56
2024/04/03 03:39:55;;;;;;;9.23;4.27;;;5.40;99.90;;;;;;4175151;28;20041;-58
2024/04/03 03:41:57;;;;;;;10.43;4.87;;;5.40;99.90;;;;;;4175557;28;20706;-56
2024/04/03 03:43:58;;;;;;;7.80;4.80;;;5.40;99.90;;;;;;4179100;28;20041;-56
2024/04/03 03:46:00;;;;;;;7.43;4.37;;;5.50;99.90;;;;;;4179718;28;20033;-58
2024/04/03 03:48:01;;;;;;;15.07;4.90;;;5.50;99.90;;;;;;4176688;28;20075;-59
2024/04/03 03:52:40;;;;;;;9.15;4.40;;;5.50;99.90;;;;;;4178437;28;20079;-54
2024/04/03 03:54:41;;;;;;;11.53;4.53;;;5.60;99.90;;;;;;4177236;28;20052;-58
2024/04/03 03:56:42;;;;;;;9.43;5.13;;;5.60;99.90;;;;;;4178270;28;20370;-57
2024/04/03 03:58:44;;;;;;;12.87;4.90;;;5.60;99.90;;;;;;4179158;28;20071;-58
2024/04/03 04:00:45;;;;;;;7.80;5.30;;;5.60;99.90;;;;;;4179304;28;20037;-58
2024/04/03 04:02:46;;;;;;;11.30;5.20;;;5.60;99.90;;;;;;4180682;28;20033;-56
2024/04/03 04:04:49;;;;;;;10.90;5.43;;;5.60;99.90;;;;;;4179243;28;20102;-57
2024/04/03 04:06:50;;;;;;;14.23;4.00;;;5.60;99.90;;;;;;4180840;28;20029;-59
2024/04/03 04:08:52;;;;;;;8.27;4.33;;;5.60;99.90;;;;;;4179596;28;20040;-56
2024/04/03 04:10:54;;;;;;;9.03;4.50;;;5.60;99.90;;;;;;4178516;28;20467;-58
2024/04/03 04:12:56;;;;;;;10.37;4.33;;;5.60;99.90;;;;;;4179343;28;20021;-58
2024/04/03 04:14:57;;;;;;;6.53;4.57;;;5.70;99.90;;;;;;4179994;28;20045;-58
2024/04/03 04:16:58;;;;;;;14.67;7.03;;;5.70;99.90;;;;;;4178899;28;20044;-55
2024/04/03 04:19:00;;;;;;;7.87;4.90;;;5.80;99.90;;;;;;4179739;28;20029;-58
2024/04/03 04:21:03;;;;;;;7.20;3.60;;;5.70;99.90;;;;;;4179441;28;20029;-55
2024/04/03 04:23:04;;;;;;;6.63;3.53;;;5.70;99.90;;;;;;4179662;28;20523;-53
2024/04/03 04:25:06;;;;;;;7.93;3.50;;;5.90;99.90;;;;;;4179054;28;20919;-56
2024/04/03 04:27:08;;;;;;;16.73;4.90;;;5.90;99.90;;;;;;4178310;28;20439;-53
2024/04/03 04:29:09;;;;;;;18.57;3.90;;;5.90;99.90;;;;;;4179770;28;20040;-60
2024/04/03 04:31:10;;;;;;;9.93;4.07;;;5.90;99.90;;;;;;4178481;28;20806;-56
2024/04/03 04:33:11;;;;;;;16.90;4.03;;;5.90;99.90;;;;;;4179552;28;20029;-54
2024/04/03 04:35:13;;;;;;;11.13;4.83;;;6.00;99.90;;;;;;4178645;28;20029;-61
2024/04/03 04:37:14;;;;;;;18.07;4.73;;;6.00;99.90;;;;;;4180425;28;20099;-59
2024/04/03 04:39:15;;;;;;;18.17;4.93;;;6.10;99.90;;;;;;4178835;28;20083;-59
2024/04/03 04:41:17;;;;;;;18.03;5.13;;;6.10;99.90;;;;;;4179042;28;20067;-58
2024/04/03 04:43:18;;;;;;;11.93;5.20;;;6.50;99.90;;;;;;4178102;28;20038;-60
2024/04/03 04:45:20;;;;;;;12.53;5.70;;;7.20;99.90;;;;;;4179873;28;20040;-58
2024/04/03 04:47:21;;;;;;;8.83;4.33;;;7.80;99.90;;;;;;4178734;28;20048;-59
2024/04/03 04:49:23;;;;;;;8.77;3.93;;;8.40;99.90;;;;;;4179105;28;20440;-56
2024/04/03 04:51:24;;;;;;;6.30;3.40;;;8.80;99.90;;;;;;4178618;28;20903;-58
2024/04/03 04:53:27;;;;;;;6.37;2.93;;;9.20;99.90;;;;;;4177158;28;20074;-54
2024/04/03 04:55:28;;;;;;;3.77;2.00;;;9.70;99.90;;;;;;4177889;28;20028;-57
2024/04/03 04:57:29;;;;;;;2.43;1.83;;;10.30;99.90;;;;;;4178666;28;20041;-55
2024/04/03 04:59:31;;;;;;;3.03;1.80;;;11.00;99.90;;;;;;4177763;28;20037;-59
2024/04/03 05:01:33;;;;;;;3.07;1.37;;;11.50;99.90;;;;;;4177529;28;20055;-58
2024/04/03 05:03:36;;;;;;;1.30;1.13;;;11.90;99.90;;;;;;4179409;28;20460;-57
2024/04/03 05:05:37;;;;;;;3.27;1.77;;;12.30;99.90;;;;;;4178081;28;20033;-57
2024/04/03 05:07:39;;;;;;;5.37;1.53;;;13.20;99.90;;;;;;4176919;28;20095;-58
2024/04/03 05:09:40;;;;;;;2.43;1.30;;;14.00;99.90;;;;;;4172020;28;20086;-59
2024/04/03 05:11:41;;;;;;;5.37;1.60;;;14.70;99.90;;;;;;4172333;28;20489;-60
2024/04/03 05:13:42;;;;;;;2.40;1.43;;;15.30;99.90;;;;;;4178235;28;20021;-58
2024/04/03 05:15:45;;;;;;;4.53;2.10;;;15.40;99.90;;;;;;4179539;28;20033;-58
2024/04/03 05:17:46;;;;;;;11.77;5.13;;;15.60;99.90;;;;;;4177981;28;20052;-59
2024/04/03 05:19:47;;;;;;;10.80;4.90;;;16.30;99.90;;;;;;4178369;28;20041;-59
2024/04/03 05:21:49;;;;;;;13.27;5.95;;;16.80;99.90;;;;;;4177855;28;20110;-58
2024/04/03 05:23:50;;;;;;;10.27;6.15;;;17.00;99.90;;;;;;4178241;28;20436;-57
2024/04/03 05:26:00;;;;;;;10.48;5.05;;;17.50;99.90;;;;;;4178428;28;20489;-60
2024/04/03 05:28:02;;;;;;;13.70;6.25;;;17.80;99.90;;;;;;4178241;28;20079;-59
2024/04/03 05:30:04;;;;;;;12.82;4.30;;;18.20;99.90;;;;;;4177655;28;20041;-59
2024/04/03 05:32:06;;;;;;;10.23;4.82;;;18.20;99.90;;;;;;4177666;28;20122;-60
2024/04/03 05:34:07;;;;;;;9.68;3.70;;;18.20;99.90;;;;;;4178580;28;20061;-59
2024/04/03 05:36:10;;;;;;;15.10;3.95;;;17.70;99.90;;;;;;4177839;28;20094;-60
2024/04/03 05:38:11;;;;;;;12.43;3.67;;;16.90;99.90;;;;;;4163887;28;20057;-59
2024/04/03 05:40:13;;;;;;;19.05;4.05;;;16.80;99.90;;;;;;4161342;28;20091;-58
2024/04/03 05:42:14;;;;;;;13.13;4.72;;;17.00;99.90;;;;;;4162291;28;20030;-60
2024/04/03 05:44:16;;;;;;;21.13;5.13;;;17.50;99.90;;;;;;4160112;28;20580;-60
2024/04/03 05:46:17;;;;;;;18.67;5.25;;;17.20;99.20;;;;;;4162051;28;20033;-59
2024/04/03 05:48:18;;;;;;;19.38;4.65;;;17.50;99.20;;;;;;4161227;28;20025;-60
2024/04/03 05:50:19;;;;;;;14.43;4.85;;;17.50;98.70;;;;;;4162002;28;20111;-60
2024/04/03 05:52:24;;;;;;;21.73;4.90;;;17.60;98.40;;;;;;4161538;28;20087;-59
2024/04/03 05:54:26;;;;;;;12.63;4.95;;;17.50;97.80;;;;;;4162414;28;20084;-60
2024/04/03 05:56:27;;;;;;;11.95;3.80;;;17.40;98.20;;;;;;4161446;28;20075;-61
2024/04/03 05:58:29;;;;;;;9.32;3.70;;;17.40;97.90;;;;;;4162007;28;20319;-59
2024/04/03 06:00:30;;;;;;;10.63;3.83;;;17.20;97.90;;;;;;4161069;28;20449;-57
2024/04/03 06:02:32;;;;;;;6.75;3.60;;;17.00;97.80;;;;;;4160981;28;20038;-59
2024/04/03 06:04:33;;;;;;;10.93;4.22;;;16.80;97.70;;;;;;4161100;28;20037;-60
2024/04/03 06:06:34;;;;;;;10.60;3.72;;;16.40;97.90;;;;;;4160734;28;20440;-58
2024/04/03 06:08:35;;;;;;;10.55;3.38;;;16.10;98.40;;;;;;4162227;28;20524;-57
2024/04/03 06:10:38;;;;;;;6.90;3.00;;;15.90;98.80;;;;;;4161204;28;20444;-60
2024/04/03 06:12:39;;;;;;;8.88;3.63;;;16.30;98.50;;;;;;4161924;28;20037;-61
2024/04/03 06:14:41;;;;;;;15.45;4.25;;;16.80;97.50;;;;;;4160661;28;20444;-57
2024/04/03 06:16:42;;;;;;;13.73;3.85;;;16.90;97.00;;;;;;4161415;28;20037;-60
2024/04/03 06:18:43;;;;;;;20.35;6.57;;;18.10;96.50;;;;;;4160847;28;20037;-60
2024/04/03 06:20:44;;;;;;;17.58;4.70;;;18.90;95.40;;;;;;4162047;28;20037;-61
2024/04/03 06:22:48;;;;;;;8.13;3.35;;;19.20;94.40;;;;;;4160277;28;20460;-59
2024/04/03 06:24:49;;;;;;;15.30;3.13;;;19.00;93.90;;;;;;4161779;28;20079;-59
2024/04/03 06:26:51;;;;;;;9.55;2.70;;;18.70;93.60;;;;;;4160775;28;20017;-60
2024/04/03 06:28:52;;;;;;;7.35;2.08;;;18.40;93.80;;;;;;4160481;28;20441;-61
2024/04/03 06:30:53;;;;;;;18.15;3.15;;;18.20;93.50;;;;;;4160757;28;20551;-56
2024/04/03 06:32:54;;;;;;;11.15;3.05;;;18.00;93.40;;;;;;4161144;28;20098;-59
2024/04/03 06:34:56;;;;;;;7.70;2.50;;;17.70;93.40;;;;;;4161189;28;20056;-58
2024/04/03 06:36:57;;;;;;;7.95;2.00;;;17.50;93.70;;;;;;4161136;28;20150;-58
2024/04/03 06:38:58;;;;;;;6.25;2.33;;;17.20;93.40;;;;;;4161698;28;20118;-56
2024/04/03 06:40:59;;;;;;;2.72;1.35;;;17.40;93.40;;;;;;4160169;28;20096;-56
2024/04/03 06:43:03;;;;;;;4.60;1.50;;;17.80;92.70;;;;;;4161384;28;20034;-59
2024/04/03 06:45:05;;;;;;;3.72;1.02;;;18.00;92.40;;;;;;4159548;28;20037;-60
2024/04/03 06:47:06;;;;;;;4.38;1.80;;;18.70;91.80;;;;;;4161657;28;20147;-59
2024/04/03 06:49:11;;;;;;;4.20;1.73;;;18.80;91.10;;;;;;4160339;28;20363;-58
2024/04/03 06:51:13;;;;;;;2.38;1.77;;;19.20;90.60;;;;;;4161260;28;20041;-59
2024/04/03 06:53:14;;;;;;;2.17;1.20;;;19.80;89.90;;;;;;4160625;28;20314;-58
2024/04/03 06:55:15;;;;;;;5.10;1.27;;;20.20;88.90;;;;;;4160673;28;20038;-55
2024/04/03 06:57:16;;;;;;;5.70;1.13;;;20.70;87.60;;;;;;4159830;28;20540;-54
2024/04/03 06:59:18;;;;;;;4.93;1.65;;;21.20;86.00;;;;;;4160964;28;20034;-61
2024/04/03 07:01:19;;;;;;;3.33;1.17;;;21.60;84.70;;;;;;4160152;28;20135;-59
2024/04/03 07:03:21;;;;;;;3.65;1.38;;;21.50;83.70;;;;;;4161135;28;20482;-59
2024/04/03 07:05:22;;;;;;;3.75;1.10;;;21.20;83.70;;;;;;4160911;28;20033;-57
2024/04/03 07:07:23;;;;;;;3.13;1.38;;;21.00;83.50;;;;;;4160796;28;20091;-57
2024/04/03 07:09:24;;;;;;;4.60;1.52;;;20.30;83.60;;;;;;4160980;28;20041;-62
2024/04/03 07:11:29;;;;;;;6.63;1.85;;;19.90;84.60;;;;;;4159726;28;20107;-61
2024/04/03 07:13:30;;;;;;;3.53;1.17;;;19.60;84.60;;;;;;4160713;28;20041;-61
2024/04/03 07:15:33;;;;;;;1.67;0.90;;;19.90;84.80;;;;;;4160428;28;20038;-60
2024/04/03 07:17:35;;;;;;;1.83;0.70;;;20.10;84.80;;;;;;4160503;28;20037;-59
2024/04/03 07:19:37;;;;;;;4.47;0.75;;;20.60;84.60;;;;;;4160220;28;20041;-58
2024/04/03 07:21:41;;;;;;;2.55;0.70;;;21.10;83.40;;;;;;4161043;28;20037;-57
2024/04/03 07:23:42;;;;;;;1.00;0.65;;;21.20;82.00;;;;;;4160337;28;20026;-58
2024/04/03 07:25:43;;;;;;;1.77;0.60;;;21.30;81.10;;;;;;4160967;28;20041;-59
2024/04/03 07:27:46;;;;;;;2.53;0.57;;;21.20;80.20;;;;;;4159749;28;20033;-61
2024/04/03 07:29:47;;;;;;;0.30;0.15;;;21.30;80.60;;;;;;4160470;28;20072;-56
2024/04/03 07:31:48;;;;;;;1.70;0.30;;;20.80;79.40;;;;;;4160202;28;20477;-60
2024/04/03 07:33:50;;;;;;;1.02;0.30;;;20.60;79.20;;;;;;4160351;28;20468;-61
2024/04/03 07:35:51;;;;;;;0.60;0.30;;;20.40;78.80;;;;;;4160679;28;20041;-61
2024/04/03 07:37:54;;;;;;;0.93;0.20;;;20.10;78.30;;;;;;4161192;28;20489;-61
2024/04/03 07:39:55;;;;;;;2.50;0.32;;;20.10;78.00;;;;;;4160777;28;20021;-62
2024/04/03 07:41:56;;;;;;;1.05;0.10;;;19.70;77.40;;;;;;4159781;28;20037;-57
2024/04/03 07:43:58;;;;;;;0.17;0.10;;;19.20;76.20;;;;;;4160290;28;20050;-54
2024/04/03 07:45:59;;;;;;;0.82;0.10;;;18.80;77.00;;;;;;4160162;28;20029;-58
2024/04/03 07:48:00;;;;;;;0.70;0.10;;;18.80;77.40;;;;;;4161013;28;20485;-59
2024/04/03 07:50:06;;;;;;;0.17;0.00;;;18.80;77.50;;;;;;4159624;28;20371;-58
2024/04/03 07:52:08;;;;;;;0.50;0.17;;;18.80;76.80;;;;;;4161239;28;20088;-55
2024/04/03 07:54:09;;;;;;;1.50;0.10;;;18.70;76.20;;;;;;4160027;28;20091;-60
2024/04/03 07:56:14;;;;;;;1.23;0.10;;;18.50;75.30;;;;;;4161325;28;20056;-58
2024/04/03 07:58:15;;;;;;;0.65;0.00;;;18.70;74.70;;;;;;4158779;28;20045;-58
2024/04/03 08:00:16;;;;;;;2.28;0.20;;;18.50;74.20;;;;;;4160812;28;20486;-56
2024/04/03 08:02:17;;;;;;;3.25;0.20;;;18.40;74.50;;;;;;4159962;28;20033;-60
2024/04/03 08:04:19;;;;;;;0.15;0.05;;;18.10;74.60;;;;;;4160640;28;20095;-58
2024/04/03 08:08:31;;;;;;;41.03;14.55;;;18.00;74.70;;;;;;4518787;22;20468;-57
2024/04/03 08:10:32;;;;;;;0.80;0.10;;;17.90;75.00;;;;;;4143434;28;20072;-59
2024/04/03 08:12:36;;;;;;;0.55;0.22;;;18.00;75.40;;;;;;4143687;28;20112;-58
2024/04/03 08:14:37;;;;;;;7.05;2.85;;;18.30;74.70;;;;;;4143731;28;20088;-54
2024/04/03 08:16:39;;;;;;;2.08;0.60;;;18.40;74.40;;;;;;4144536;28;20069;-57
2024/04/03 08:18:41;;;;;;;0.25;0.00;;;18.70;74.50;;;;;;4143683;28;20413;-53
2024/04/03 08:20:42;;;;;;;2.33;0.57;;;19.00;74.30;;;;;;4144080;28;20147;-58
2024/04/03 08:22:44;;;;;;;9.80;3.58;;;19.10;74.40;;;;;;4143762;28;20034;-58
2024/04/03 08:24:47;;;;;;;0.28;0.17;;;18.90;74.50;;;;;;4143756;28;20022;-59
2024/04/03 08:26:48;;;;;;;0.40;0.10;;;19.10;74.90;;;;;;4144044;28;20042;-60
2024/04/03 08:28:49;;;;;;;1.58;0.10;;;19.10;74.60;;;;;;4144733;28;20471;-58
2024/04/03 08:30:50;;;;;;;5.68;1.23;;;19.30;74.40;;;;;;4147279;28;20041;-62
2024/04/03 08:32:51;;;;;;;1.75;0.50;;;18.90;72.10;;;;;;4145974;28;20367;-60
2024/04/03 08:34:53;;;;;;;0.30;0.10;;;18.60;73.60;;;;;;4146668;28;20088;-58
2024/04/03 08:36:55;;;;;;;1.58;0.68;;;18.50;72.70;;;;;;4145446;28;20042;-59
2024/04/03 08:38:56;;;;;;;1.33;0.20;;;18.50;72.60;;;;;;4147484;28;20057;-59
2024/04/03 08:40:58;;;;;;;5.32;1.67;;;18.30;72.40;;;;;;4145891;28;20095;-53
2024/04/03 08:43:00;;;;;;;0.70;0.10;;;18.20;72.20;;;;;;4146650;28;20080;-55
2024/04/03 08:45:02;;;;;;;3.97;0.20;;;18.30;72.40;;;;;;4145762;28;20654;-58
2024/04/03 08:47:04;;;;;;;0.47;0.17;;;18.30;72.30;;;;;;4146850;28;20038;-58
2024/04/03 08:49:08;;;;;;;1.95;0.52;;;18.20;72.50;;;;;;4145855;28;20096;-56
2024/04/03 08:51:10;;;;;;;0.95;0.13;;;18.20;72.70;;;;;;4146399;28;20084;-55
2024/04/03 08:53:16;;;;;;;1.52;0.10;;;18.20;71.70;;;;;;4146371;28;20461;-55
2024/04/03 08:55:18;;;;;;;0.50;0.10;;;18.20;71.70;;;;;;4145727;28;20180;-54
2024/04/03 08:57:19;;;;;;;0.98;0.20;;;18.20;71.40;;;;;;4145972;28;20084;-58
2024/04/03 08:59:21;;;;;;;0.52;0.10;;;18.20;70.60;;;;;;4145695;28;20092;-52
2024/04/03 09:01:22;;;;;;;0.22;0.00;;;18.30;70.40;;;;;;4146656;28;20509;-54
2024/04/03 09:03:23;;;;;;;0.40;0.10;;;18.10;70.20;;;;;;4145441;28;20045;-56
2024/04/03 09:05:25;;;;;;;0.28;0.13;;;18.10;70.70;;;;;;4146607;28;20437;-50
2024/04/03 09:07:26;;;;;;;0.08;0.00;;;17.90;70.80;;;;;;4144873;28;20042;-57
2024/04/03 09:09:30;;;;;;;3.00;0.10;;;17.90;71.00;;;;;;4146930;28;20375;-55
2024/04/03 09:11:32;;;;;;;0.93;0.10;;;17.90;71.50;;;;;;4145327;28;20128;-57
2024/04/03 09:13:33;;;;;;;1.10;0.08;;;18.00;71.30;;;;;;4146515;28;20030;-56
2024/04/03 09:15:34;;;;;;;0.73;0.20;;;18.20;71.50;;;;;;4145066;28;20843;-53
2024/04/03 09:17:36;;;;;;;0.15;0.10;;;18.10;71.40;;;;;;4146441;28;20038;-50
2024/04/03 09:19:48;;;;;;;1.08;0.10;;;18.20;71.50;;;;;;4145284;28;20053;-55
2024/04/03 09:21:49;;;;;;;2.28;0.38;;;18.40;71.60;;;;;;4146596;28;20030;-54
2024/04/03 09:23:50;;;;;;;0.20;0.05;;;18.50;71.00;;;;;;4144893;28;20496;-56
2024/04/03 09:25:51;;;;;;;0.70;0.05;;;18.40;69.70;;;;;;4146281;28;20458;-52
2024/04/03 09:28:00;;;;;;;0.30;0.00;;;18.40;69.80;;;;;;4145165;28;20042;-57
2024/04/03 09:30:01;;;;;;;0.73;0.10;;;18.40;69.20;;;;;;4146111;28;20021;-56
2024/04/03 09:32:04;;;;;;;0.10;0.05;;;18.30;69.40;;;;;;4145613;28;20096;-56
2024/04/03 09:34:07;;;;;;;0.90;0.10;;;18.20;69.40;;;;;;4145102;28;20033;-51
2024/04/03 09:36:10;;;;;;;0.40;0.10;;;18.30;69.30;;;;;;4145323;28;20045;-56
2024/04/03 09:38:13;;;;;;;1.08;0.20;;;18.30;69.70;;;;;;4145131;28;20484;-57
2024/04/03 09:40:15;;;;;;;0.28;0.08;;;18.40;70.20;;;;;;4144976;28;20045;-57
2024/04/03 09:42:20;;;;;;;1.05;0.10;;;18.50;69.50;;;;;;4144524;28;20045;-57
2024/04/03 09:44:24;;;;;;;0.13;0.10;;;18.20;69.30;;;;;;4146291;28;20034;-56
2024/04/03 09:46:28;;;;;;;1.58;0.05;;;18.00;69.10;;;;;;4144676;28;20046;-55
2024/04/03 09:48:30;;;;;;;0.68;0.20;;;18.00;69.30;;;;;;4146097;28;20046;-57
2024/04/03 09:50:42;;;;;;;1.15;0.10;;;17.90;69.60;;;;;;4145133;28;20092;-55
2024/04/03 09:52:45;;;;;;;1.00;0.00;;;17.70;69.70;;;;;;4145094;28;20058;-57
2024/04/03 09:54:48;;;;;;;1.88;0.08;;;17.60;70.00;;;;;;4144621;28;20065;-57
2024/04/03 09:56:50;;;;;;;2.45;0.10;;;17.70;69.60;;;;;;4144382;28;20104;-53
2024/04/03 09:58:51;;;;;;;0.73;0.10;;;17.70;69.20;;;;;;4144076;28;20054;-57
2024/04/03 10:01:05;;;;;;;0.15;0.00;;;17.90;69.40;;;;;;4145454;28;20030;-55
2024/04/03 10:03:21;;;;;;;0.00;0.00;;;17.90;68.60;;;;;;4144533;28;20480;-57
2024/04/03 10:05:40;;;;;;;0.77;0.15;;;17.80;68.20;;;;;;4145611;28;20033;-54
2024/04/03 10:07:41;;;;;;;0.80;0.10;;;17.70;68.30;;;;;;4143986;28;20046;-54
2024/04/03 10:09:43;;;;;;;0.68;0.10;;;17.60;68.50;;;;;;4145672;28;20119;-56
2024/04/03 10:11:51;;;;;;;1.65;0.10;;;17.50;68.70;;;;;;4144546;28;20030;-54
2024/04/03 10:13:52;;;;;;;0.93;0.10;;;17.40;68.10;;;;;;4145264;28;20042;-56
2024/04/03 10:16:04;;;;;;;1.17;0.32;;;17.30;68.30;;;;;;4144114;28;20165;-56
2024/04/03 10:18:05;;;;;;;0.82;0.05;;;17.20;67.40;;;;;;4145548;28;20076;-54
2024/04/03 10:20:07;;;;;;;0.30;0.00;;;17.10;67.90;;;;;;4142858;28;20041;-58
2024/04/03 10:22:14;;;;;;;0.40;0.10;;;17.00;67.80;;;;;;4144739;28;20508;-56
2024/04/03 10:24:19;;;;;;;0.45;0.10;;;16.90;67.40;;;;;;4144401;28;20042;-58
2024/04/03 10:26:20;;;;;;;1.38;0.10;;;16.90;67.70;;;;;;4144831;28;20104;-56
2024/04/03 10:28:23;;;;;;;0.20;0.10;;;16.90;67.30;;;;;;4144426;28;20038;-57
2024/04/03 10:30:24;;;;;;;3.30;0.10;;;16.90;67.10;;;;;;4143975;28;20100;-54
2024/04/03 10:32:27;;;;;;;0.22;0.00;;;16.80;66.50;;;;;;4145030;28;20478;-56
2024/04/03 10:34:28;;;;;;;0.55;0.10;;;16.80;66.50;;;;;;4143989;28;20204;-56
2024/04/03 10:36:29;;;;;;;0.20;0.05;;;16.70;66.50;;;;;;4145185;28;20033;-55
2024/04/03 10:38:34;;;;;;;0.30;0.00;;;16.80;66.90;;;;;;4143745;28;20050;-55
2024/04/03 10:40:35;;;;;;;0.08;0.00;;;16.90;67.10;;;;;;4143783;28;20077;-52
2024/04/03 10:42:37;;;;;;;0.90;0.10;;;16.90;66.30;;;;;;4143457;28;20096;-54